Time;durP1;ratioP1;P1;durP2;ratioP2;P2;SDS_P1;SDS_P2;PMS_P1;PMS_P2;Temp;Humidity;BMP_temperature;BMP_pressure;BME280_temperature;BME280_humidity;BME280_pressure;Samples;Min_cycle;Max_cycle;Signal;HPM_P1;HPM_P2
2022/10/22 00:00:10;;;;;;;0.70;0.50;;;16.40;99.90;;;;;;7389386;19;20722;-79
2022/10/22 00:02:36;;;;;;;1.65;0.50;;;16.40;99.90;;;;;;7389470;19;20706;-77
2022/10/22 00:05:02;;;;;;;1.33;0.70;;;16.40;99.90;;;;;;7388244;19;20147;-77
2022/10/22 00:07:28;;;;;;;1.17;0.47;;;16.40;99.90;;;;;;7388194;19;20135;-77
2022/10/22 00:09:55;;;;;;;1.50;0.80;;;16.20;99.90;;;;;;7387071;19;20141;-78
2022/10/22 00:12:21;;;;;;;0.68;0.52;;;16.20;99.90;;;;;;7386192;19;20139;-77
2022/10/22 00:14:48;;;;;;;0.38;0.38;;;16.20;99.90;;;;;;7387821;19;20147;-77
2022/10/22 00:17:14;;;;;;;1.50;0.60;;;16.10;99.90;;;;;;7385258;19;20637;-78
2022/10/22 00:19:40;;;;;;;1.15;0.40;;;16.20;99.90;;;;;;7386890;19;20631;-77
2022/10/22 00:22:07;;;;;;;0.88;0.30;;;16.20;99.90;;;;;;7390385;19;20144;-77
2022/10/22 00:24:34;;;;;;;0.75;0.45;;;16.00;99.90;;;;;;7397199;19;20134;-77
2022/10/22 00:27:01;;;;;;;0.50;0.30;;;16.00;99.90;;;;;;7394814;19;20163;-78
2022/10/22 00:29:27;;;;;;;1.52;0.88;;;16.00;99.90;;;;;;7395377;19;20139;-79
2022/10/22 00:31:52;;;;;;;0.82;0.30;;;16.10;99.90;;;;;;7396564;19;20591;-76
2022/10/22 00:34:20;;;;;;;0.45;0.45;;;16.00;99.90;;;;;;7394528;19;20135;-76
2022/10/22 00:36:46;;;;;;;0.50;0.35;;;16.10;99.90;;;;;;7392176;19;20244;-77
2022/10/22 00:39:15;;;;;;;2.50;0.40;;;16.10;99.90;;;;;;7392878;19;20138;-77
2022/10/22 00:41:42;;;;;;;1.63;0.50;;;16.00;99.90;;;;;;7395030;19;20487;-77
2022/10/22 00:44:48;;;;;;;2.53;0.40;;;16.10;99.90;;;;;;7397178;19;20137;-77
2022/10/22 00:47:16;;;;;;;0.55;0.50;;;16.00;99.90;;;;;;7393870;19;20181;-76
2022/10/22 00:49:43;;;;;;;0.82;0.32;;;16.10;99.90;;;;;;7394486;19;20146;-77
2022/10/22 00:52:10;;;;;;;0.50;0.50;;;16.00;99.90;;;;;;7394367;19;20651;-76
2022/10/22 00:54:37;;;;;;;0.68;0.47;;;16.10;99.90;;;;;;7394516;19;20158;-76
2022/10/22 00:57:03;;;;;;;0.55;0.47;;;16.20;99.90;;;;;;7392487;19;20135;-77
2022/10/22 00:59:30;;;;;;;0.40;0.30;;;16.20;99.90;;;;;;7393936;19;20166;-77
2022/10/22 01:01:56;;;;;;;1.52;0.32;;;16.20;99.90;;;;;;7392597;19;20134;-77
2022/10/22 01:04:22;;;;;;;0.70;0.60;;;16.10;99.90;;;;;;7387696;19;20153;-77
2022/10/22 01:06:48;;;;;;;0.60;0.43;;;16.10;99.90;;;;;;7392021;19;20162;-76
2022/10/22 01:09:44;;;;;;;0.50;0.40;;;16.10;99.90;;;;;;7393475;19;20137;-77
2022/10/22 01:12:27;;;;;;;0.47;0.40;;;16.10;99.90;;;;;;7395503;19;20550;-76
2022/10/22 01:15:05;;;;;;;0.52;0.40;;;16.10;99.90;;;;;;7394963;19;20142;-76
2022/10/22 01:17:36;;;;;;;0.30;0.30;;;15.80;99.90;;;;;;7394909;19;20210;-78
2022/10/22 01:20:43;;;;;;;1.60;0.40;;;15.80;99.90;;;;;;7393942;19;20166;-76
2022/10/22 01:23:28;;;;;;;1.67;0.55;;;15.60;99.90;;;;;;7390197;19;20142;-76
2022/10/22 01:26:26;;;;;;;2.70;0.43;;;15.60;99.90;;;;;;7393659;19;20164;-76
2022/10/22 01:29:33;;;;;;;0.40;0.40;;;15.50;99.90;;;;;;7395953;19;20152;-75
2022/10/22 01:32:03;;;;;;;0.93;0.50;;;15.40;99.90;;;;;;7403052;19;20134;-77
2022/10/22 01:34:31;;;;;;;0.35;0.30;;;15.40;99.90;;;;;;7400335;19;20142;-77
2022/10/22 01:36:58;;;;;;;1.60;0.40;;;15.30;99.90;;;;;;7399669;19;20159;-77
2022/10/22 01:39:25;;;;;;;1.20;0.40;;;15.30;99.90;;;;;;7405046;19;20174;-77
2022/10/22 01:41:54;;;;;;;1.38;0.60;;;15.60;99.90;;;;;;7399963;19;20131;-78
2022/10/22 01:44:31;;;;;;;0.98;0.60;;;15.40;99.90;;;;;;7393334;19;20609;-76
2022/10/22 01:47:23;;;;;;;1.13;0.60;;;15.60;99.90;;;;;;7392447;19;20470;-76
2022/10/22 01:50:09;;;;;;;1.58;0.60;;;15.80;99.90;;;;;;7391732;19;20138;-77
2022/10/22 01:52:47;;;;;;;0.60;0.57;;;16.00;99.90;;;;;;7391138;19;20134;-77
2022/10/22 01:55:34;;;;;;;0.73;0.50;;;16.10;99.90;;;;;;7391750;19;20569;-76
2022/10/22 01:58:13;;;;;;;1.88;0.50;;;16.10;99.90;;;;;;7388878;19;20165;-76
2022/10/22 02:00:47;;;;;;;0.50;0.40;;;16.00;99.90;;;;;;7389977;19;20154;-76
2022/10/22 02:03:20;;;;;;;0.80;0.60;;;16.00;99.90;;;;;;7391882;19;20154;-76
2022/10/22 02:05:54;;;;;;;0.40;0.40;;;16.00;99.90;;;;;;7389886;19;20189;-77
2022/10/22 02:08:29;;;;;;;0.50;0.40;;;16.00;99.90;;;;;;7388488;19;20158;-77
2022/10/22 02:10:57;;;;;;;0.45;0.45;;;15.90;99.90;;;;;;7392721;19;20135;-77
2022/10/22 02:13:37;;;;;;;0.55;0.40;;;15.90;99.90;;;;;;7392095;19;20158;-77
2022/10/22 02:16:07;;;;;;;0.40;0.40;;;15.80;99.90;;;;;;7390434;19;20653;-76
2022/10/22 02:18:36;;;;;;;0.45;0.45;;;15.80;99.90;;;;;;7386719;19;20141;-76
2022/10/22 02:21:03;;;;;;;1.33;0.60;;;16.00;99.90;;;;;;7392413;19;20163;-77
2022/10/22 02:23:29;;;;;;;0.65;0.50;;;15.90;99.90;;;;;;7382826;19;20135;-76
2022/10/22 02:26:10;;;;;;;0.52;0.40;;;16.00;99.90;;;;;;7394008;19;20149;-76
2022/10/22 02:28:57;;;;;;;0.50;0.50;;;15.90;99.90;;;;;;7391679;19;20636;-76
2022/10/22 02:31:28;;;;;;;0.55;0.40;;;16.00;99.90;;;;;;7390069;19;20142;-76
2022/10/22 02:33:56;;;;;;;0.63;0.40;;;16.10;99.90;;;;;;7392837;19;20138;-75
2022/10/22 02:36:23;;;;;;;0.60;0.60;;;15.90;99.90;;;;;;7389967;19;20143;-76
2022/10/22 02:38:50;;;;;;;0.85;0.40;;;16.00;99.90;;;;;;7389625;19;20134;-76
2022/10/22 02:41:18;;;;;;;0.77;0.40;;;16.00;99.90;;;;;;7392109;19;20134;-77
2022/10/22 02:43:50;;;;;;;0.32;0.30;;;16.00;99.90;;;;;;7391276;19;20130;-77
2022/10/22 02:46:15;;;;;;;1.45;0.30;;;16.10;99.90;;;;;;7387191;19;20151;-76
2022/10/22 02:48:41;;;;;;;0.68;0.40;;;15.90;99.90;;;;;;7389709;19;20137;-76
2022/10/22 02:51:07;;;;;;;0.60;0.50;;;16.10;99.90;;;;;;7389204;19;20194;-76
2022/10/22 02:53:33;;;;;;;0.30;0.30;;;15.90;99.90;;;;;;7389968;19;20139;-76
2022/10/22 02:55:59;;;;;;;0.40;0.40;;;15.60;99.90;;;;;;7387327;19;20653;-76
2022/10/22 02:58:24;;;;;;;0.40;0.35;;;15.40;99.90;;;;;;7389072;19;20165;-75
2022/10/22 03:00:50;;;;;;;0.77;0.40;;;15.30;99.90;;;;;;7391820;19;20605;-77
2022/10/22 03:03:16;;;;;;;0.40;0.40;;;15.30;99.90;;;;;;7389974;19;20632;-76
2022/10/22 03:05:42;;;;;;;0.43;0.40;;;15.40;99.90;;;;;;7387422;19;20178;-76
2022/10/22 03:08:07;;;;;;;0.30;0.25;;;15.80;99.90;;;;;;7387947;19;20206;-76
2022/10/22 03:10:33;;;;;;;0.28;0.28;;;15.80;99.90;;;;;;7390395;19;20130;-76
2022/10/22 03:12:59;;;;;;;0.40;0.40;;;15.80;99.90;;;;;;7389441;19;20138;-76
2022/10/22 03:15:25;;;;;;;0.57;0.40;;;15.50;99.90;;;;;;7388271;19;20626;-76
2022/10/22 03:17:50;;;;;;;0.80;0.40;;;15.60;99.90;;;;;;7387417;19;20155;-76
2022/10/22 03:20:16;;;;;;;1.25;0.40;;;15.80;99.90;;;;;;7387802;19;20150;-75
2022/10/22 03:22:43;;;;;;;0.60;0.40;;;15.80;99.90;;;;;;7388508;19;21362;-75
2022/10/22 03:25:19;;;;;;;0.30;0.30;;;15.50;99.90;;;;;;7389882;19;20210;-77
2022/10/22 03:27:46;;;;;;;0.20;0.20;;;15.40;99.90;;;;;;7387723;19;20154;-76
2022/10/22 03:30:12;;;;;;;0.55;0.40;;;15.40;99.90;;;;;;7390856;19;20615;-76
2022/10/22 03:32:37;;;;;;;0.88;0.45;;;15.20;99.90;;;;;;7389034;19;20142;-75
2022/10/22 03:35:04;;;;;;;0.30;0.30;;;15.40;99.90;;;;;;7389110;19;20146;-76
2022/10/22 03:37:31;;;;;;;0.90;0.60;;;15.70;99.90;;;;;;7388753;19;20655;-75
2022/10/22 03:39:57;;;;;;;1.02;0.40;;;15.50;99.90;;;;;;7388289;19;20651;-76
2022/10/22 03:42:23;;;;;;;2.67;0.30;;;15.30;99.90;;;;;;7387093;19;20150;-77
2022/10/22 03:44:50;;;;;;;0.30;0.30;;;15.50;99.90;;;;;;7389164;19;20737;-76
2022/10/22 03:47:15;;;;;;;0.65;0.43;;;15.70;99.90;;;;;;7387735;19;20665;-76
2022/10/22 03:49:41;;;;;;;0.40;0.30;;;15.50;99.90;;;;;;7390308;19;21129;-77
2022/10/22 03:52:09;;;;;;;1.85;0.40;;;15.60;99.90;;;;;;7387022;19;20151;-76
2022/10/22 03:54:36;;;;;;;1.48;0.25;;;15.50;99.90;;;;;;7387862;19;20130;-76
2022/10/22 03:57:03;;;;;;;0.40;0.40;;;15.50;99.90;;;;;;7385174;19;20698;-76
2022/10/22 03:59:37;;;;;;;0.57;0.40;;;15.70;99.90;;;;;;7387686;19;20483;-76
2022/10/22 04:02:03;;;;;;;1.95;0.50;;;15.80;99.90;;;;;;7385680;19;20142;-77
2022/10/22 04:04:30;;;;;;;0.40;0.38;;;15.80;99.90;;;;;;7380780;19;20257;-76
2022/10/22 04:06:55;;;;;;;0.77;0.40;;;16.10;99.90;;;;;;7385705;19;20648;-76
2022/10/22 04:09:21;;;;;;;0.60;0.50;;;16.00;99.90;;;;;;7386727;19;20134;-76
2022/10/22 04:11:47;;;;;;;0.35;0.30;;;15.90;99.90;;;;;;7388523;19;20134;-76
2022/10/22 04:14:13;;;;;;;0.73;0.40;;;15.90;99.90;;;;;;7388762;19;20150;-75
2022/10/22 04:16:41;;;;;;;0.88;0.50;;;15.90;99.90;;;;;;7387792;19;20135;-76
2022/10/22 04:19:07;;;;;;;2.15;0.40;;;15.80;99.90;;;;;;7388491;19;20491;-76
2022/10/22 04:21:34;;;;;;;1.75;0.60;;;15.80;99.90;;;;;;7388964;19;20137;-75
2022/10/22 04:23:59;;;;;;;1.83;0.70;;;15.60;99.90;;;;;;7386141;19;20745;-77
2022/10/22 04:26:25;;;;;;;0.40;0.40;;;15.70;99.90;;;;;;7388261;19;20162;-76
2022/10/22 04:28:52;;;;;;;1.48;0.55;;;15.60;99.90;;;;;;7386872;19;20149;-76
2022/10/22 04:31:21;;;;;;;0.70;0.30;;;15.40;99.90;;;;;;7387218;19;20127;-76
2022/10/22 04:33:51;;;;;;;2.33;0.60;;;15.40;99.90;;;;;;7392034;19;20151;-76
2022/10/22 04:36:17;;;;;;;1.20;0.77;;;15.40;99.90;;;;;;7392586;19;20161;-76
2022/10/22 04:38:45;;;;;;;2.55;0.60;;;15.60;99.90;;;;;;7391789;19;20135;-76
2022/10/22 04:41:16;;;;;;;2.40;0.40;;;15.60;99.90;;;;;;7392037;19;20145;-76
2022/10/22 04:43:43;;;;;;;1.65;0.40;;;15.70;99.90;;;;;;7389646;19;20173;-76
2022/10/22 04:46:11;;;;;;;0.20;0.20;;;15.70;99.90;;;;;;7388114;19;20488;-76
2022/10/22 04:48:39;;;;;;;0.68;0.40;;;15.60;99.90;;;;;;7380710;19;20134;-74
2022/10/22 04:51:05;;;;;;;2.03;0.50;;;15.50;99.90;;;;;;7389245;19;20142;-76
2022/10/22 04:53:34;;;;;;;2.92;0.70;;;15.60;99.90;;;;;;7387965;19;20619;-75
2022/10/22 04:56:27;;;;;;;0.75;0.43;;;15.70;99.90;;;;;;7387444;19;20182;-76
2022/10/22 04:59:02;;;;;;;1.23;0.55;;;15.80;99.90;;;;;;7385587;19;20157;-75
2022/10/22 05:01:35;;;;;;;1.10;0.40;;;15.80;99.90;;;;;;7387156;19;20138;-75
2022/10/22 05:04:03;;;;;;;0.40;0.28;;;15.70;99.90;;;;;;7384562;19;20178;-76
2022/10/22 05:06:30;;;;;;;1.20;0.40;;;15.60;99.90;;;;;;7385275;19;20171;-76
2022/10/22 05:09:02;;;;;;;0.75;0.40;;;15.40;99.90;;;;;;7388550;19;20146;-76
2022/10/22 05:11:32;;;;;;;0.75;0.68;;;15.50;99.90;;;;;;7392988;19;20154;-76
2022/10/22 05:13:59;;;;;;;4.13;0.70;;;15.50;99.90;;;;;;7394734;19;20130;-76
2022/10/22 05:16:28;;;;;;;1.90;0.50;;;15.70;99.90;;;;;;7393833;19;20135;-77
2022/10/22 05:18:54;;;;;;;1.42;0.60;;;15.90;99.90;;;;;;7392288;19;20155;-76
2022/10/22 05:21:20;;;;;;;1.20;0.60;;;15.90;99.90;;;;;;7392167;19;20130;-76
2022/10/22 05:23:48;;;;;;;2.10;0.60;;;16.00;99.90;;;;;;7390866;19;20521;-76
2022/10/22 05:26:17;;;;;;;2.60;0.70;;;16.00;99.90;;;;;;7394547;19;20675;-76
2022/10/22 05:28:43;;;;;;;0.63;0.50;;;16.00;99.90;;;;;;7390356;19;20158;-74
2022/10/22 05:31:11;;;;;;;1.30;0.50;;;15.90;99.90;;;;;;7392765;19;20518;-76
2022/10/22 05:33:37;;;;;;;0.70;0.57;;;15.70;99.90;;;;;;7390601;19;20151;-76
2022/10/22 05:36:05;;;;;;;0.63;0.50;;;15.80;99.90;;;;;;7392929;19;20166;-76
2022/10/22 05:38:34;;;;;;;1.40;1.27;;;15.70;99.90;;;;;;7388297;19;20139;-76
2022/10/22 05:41:03;;;;;;;1.58;0.47;;;15.80;99.90;;;;;;7393527;19;20138;-75
2022/10/22 05:43:29;;;;;;;0.60;0.47;;;15.70;99.90;;;;;;7391907;19;20188;-77
2022/10/22 05:45:55;;;;;;;0.95;0.40;;;15.60;99.90;;;;;;7392731;19;20135;-76
2022/10/22 05:48:21;;;;;;;1.77;0.52;;;15.60;99.90;;;;;;7385199;19;20158;-76
2022/10/22 05:50:49;;;;;;;1.05;0.43;;;15.70;99.90;;;;;;7394242;19;20129;-76
2022/10/22 05:53:16;;;;;;;2.15;0.50;;;15.50;99.90;;;;;;7392177;19;20722;-75
2022/10/22 05:55:42;;;;;;;0.38;0.35;;;15.30;99.90;;;;;;7391068;19;20167;-75
2022/10/22 05:58:09;;;;;;;0.88;0.50;;;15.40;99.90;;;;;;7390954;19;20138;-75
2022/10/22 06:00:35;;;;;;;0.60;0.50;;;15.40;99.90;;;;;;7392018;19;20655;-76
2022/10/22 06:03:00;;;;;;;0.65;0.47;;;15.50;99.90;;;;;;7391124;19;20226;-76
2022/10/22 06:05:26;;;;;;;0.73;0.43;;;15.80;99.90;;;;;;7392258;19;20147;-75
2022/10/22 06:07:53;;;;;;;0.70;0.57;;;15.70;99.90;;;;;;7393440;19;20162;-76
2022/10/22 06:10:19;;;;;;;0.68;0.57;;;15.90;99.90;;;;;;7391228;19;20138;-76
2022/10/22 06:12:47;;;;;;;1.10;0.55;;;15.90;99.90;;;;;;7392648;19;20635;-75
2022/10/22 06:15:15;;;;;;;2.58;0.52;;;15.90;99.90;;;;;;7392718;19;20145;-75
2022/10/22 06:17:43;;;;;;;2.50;0.75;;;15.80;99.90;;;;;;7391154;19;20142;-76
2022/10/22 06:20:09;;;;;;;0.80;0.50;;;15.80;99.90;;;;;;7394806;19;20123;-75
2022/10/22 06:22:35;;;;;;;1.95;0.73;;;15.80;99.90;;;;;;7396288;19;20186;-76
2022/10/22 06:25:01;;;;;;;1.10;0.50;;;15.90;99.90;;;;;;7394775;19;20146;-76
2022/10/22 06:27:27;;;;;;;2.22;0.55;;;16.00;99.90;;;;;;7394424;19;20143;-75
2022/10/22 06:29:52;;;;;;;0.55;0.50;;;16.10;99.90;;;;;;7392118;19;20138;-76
2022/10/22 06:32:18;;;;;;;5.18;0.55;;;16.10;99.90;;;;;;7389559;19;20131;-77
2022/10/22 06:34:45;;;;;;;3.35;0.90;;;16.10;99.90;;;;;;7390325;19;20526;-76
2022/10/22 06:37:12;;;;;;;1.48;0.60;;;16.20;99.90;;;;;;7389619;19;20702;-76
2022/10/22 06:39:38;;;;;;;1.58;0.60;;;16.20;99.90;;;;;;7386560;19;20242;-76
2022/10/22 06:42:04;;;;;;;1.05;0.60;;;16.20;99.90;;;;;;7394173;19;20551;-76
2022/10/22 06:44:29;;;;;;;2.20;0.95;;;16.20;99.90;;;;;;7390913;19;20138;-76
2022/10/22 06:46:55;;;;;;;1.33;0.70;;;16.10;99.90;;;;;;7389467;19;20150;-76
2022/10/22 06:49:21;;;;;;;0.73;0.47;;;16.20;99.90;;;;;;7388602;19;20138;-76
2022/10/22 06:51:51;;;;;;;1.25;0.60;;;16.10;99.90;;;;;;7389645;19;20517;-75
2022/10/22 06:54:18;;;;;;;1.45;0.90;;;16.20;99.90;;;;;;7390481;19;20150;-75
2022/10/22 06:56:43;;;;;;;5.05;0.90;;;16.10;99.90;;;;;;7384093;19;20555;-76
2022/10/22 06:59:09;;;;;;;2.95;0.77;;;16.20;99.90;;;;;;7388578;19;20143;-77
2022/10/22 07:01:35;;;;;;;2.42;0.82;;;16.20;99.90;;;;;;7386239;19;20146;-75
2022/10/22 07:04:02;;;;;;;2.28;0.80;;;16.10;99.90;;;;;;7390454;19;20175;-75
2022/10/22 07:06:28;;;;;;;3.17;1.27;;;16.20;99.90;;;;;;7390535;19;20234;-75
2022/10/22 07:08:56;;;;;;;0.98;0.73;;;16.30;99.90;;;;;;7390713;19;20849;-75
2022/10/22 07:11:43;;;;;;;1.42;0.70;;;16.30;99.90;;;;;;7391572;19;20172;-76
2022/10/22 07:14:10;;;;;;;1.45;0.90;;;16.20;99.90;;;;;;7394936;19;20210;-76
2022/10/22 07:16:36;;;;;;;1.65;0.80;;;16.20;99.90;;;;;;7389602;19;20134;-77
2022/10/22 07:19:03;;;;;;;1.90;1.00;;;15.90;99.90;;;;;;7391864;19;20139;-77
2022/10/22 07:21:30;;;;;;;1.90;0.80;;;16.00;99.90;;;;;;7388755;19;20153;-76
2022/10/22 07:23:56;;;;;;;2.60;0.88;;;15.90;99.90;;;;;;7393850;19;20134;-77
2022/10/22 07:26:24;;;;;;;5.10;0.90;;;16.00;99.90;;;;;;7391086;19;20206;-76
2022/10/22 07:28:50;;;;;;;0.85;0.70;;;16.10;99.90;;;;;;7390441;19;20154;-77
2022/10/22 07:31:17;;;;;;;1.40;0.80;;;16.20;99.90;;;;;;7388739;19;20158;-77
2022/10/22 07:33:44;;;;;;;3.08;1.80;;;16.30;99.90;;;;;;7391755;19;20161;-77
2022/10/22 07:36:16;;;;;;;3.25;1.40;;;16.30;99.90;;;;;;7390581;19;20154;-76
2022/10/22 07:39:10;;;;;;;5.43;0.93;;;16.30;99.90;;;;;;7385175;19;20138;-77
2022/10/22 07:41:35;;;;;;;2.15;1.10;;;16.20;99.90;;;;;;7383607;19;20157;-77
2022/10/22 07:44:01;;;;;;;1.60;0.82;;;16.40;99.90;;;;;;7385188;19;20139;-77
2022/10/22 07:46:27;;;;;;;0.90;0.65;;;16.40;99.90;;;;;;7389259;19;20588;-76
2022/10/22 07:48:53;;;;;;;1.60;0.93;;;16.30;99.90;;;;;;7388599;19;20138;-75
2022/10/22 07:51:19;;;;;;;1.33;0.80;;;16.20;99.90;;;;;;7382332;19;20137;-76
2022/10/22 07:53:45;;;;;;;2.15;1.35;;;16.30;99.90;;;;;;7388851;19;20152;-77
2022/10/22 07:56:11;;;;;;;3.80;1.10;;;16.40;99.90;;;;;;7388663;19;20134;-77
2022/10/22 07:58:37;;;;;;;1.40;0.70;;;16.20;99.90;;;;;;7381481;19;20172;-76
2022/10/22 08:01:04;;;;;;;3.60;1.00;;;16.00;99.90;;;;;;7388559;19;20474;-76
2022/10/22 08:03:31;;;;;;;1.40;0.70;;;16.10;99.90;;;;;;7386625;19;20150;-77
2022/10/22 08:05:57;;;;;;;1.48;0.75;;;16.10;99.90;;;;;;7386817;19;20158;-76
2022/10/22 08:08:23;;;;;;;1.42;1.10;;;16.30;99.90;;;;;;7386406;19;20173;-76
2022/10/22 08:10:51;;;;;;;3.03;0.80;;;16.40;99.90;;;;;;7387380;19;20151;-76
2022/10/22 08:13:18;;;;;;;1.35;0.60;;;16.60;99.90;;;;;;7385335;19;20503;-77
2022/10/22 08:15:45;;;;;;;1.60;0.82;;;16.50;99.90;;;;;;7389304;19;20138;-76
2022/10/22 08:18:12;;;;;;;0.77;0.52;;;16.60;99.90;;;;;;7383158;19;20162;-77
2022/10/22 08:20:38;;;;;;;2.15;0.90;;;16.70;99.90;;;;;;7386423;19;20139;-78
2022/10/22 08:23:04;;;;;;;1.77;0.80;;;16.80;99.90;;;;;;7390603;19;20138;-76
2022/10/22 08:25:30;;;;;;;0.77;0.57;;;16.90;99.90;;;;;;7393422;19;20150;-75
2022/10/22 08:27:56;;;;;;;0.57;0.40;;;16.80;99.90;;;;;;7386300;19;20622;-74
2022/10/22 08:30:21;;;;;;;2.25;0.77;;;16.80;99.90;;;;;;7386466;19;20135;-79
2022/10/22 08:32:47;;;;;;;2.38;0.73;;;16.80;99.90;;;;;;7384919;19;20146;-77
2022/10/22 08:35:13;;;;;;;3.05;1.50;;;16.90;99.90;;;;;;7386279;19;20145;-74
2022/10/22 08:37:39;;;;;;;1.90;1.15;;;16.90;99.90;;;;;;7384441;19;20209;-75
2022/10/22 08:40:06;;;;;;;1.15;0.70;;;16.90;99.90;;;;;;7384516;19;20142;-78
2022/10/22 08:42:35;;;;;;;1.63;0.50;;;16.90;99.90;;;;;;7388479;19;20151;-79
2022/10/22 08:45:35;;;;;;;5.53;0.77;;;16.80;99.90;;;;;;7394899;19;20202;-78
2022/10/22 08:48:27;;;;;;;5.95;1.63;;;16.90;99.90;;;;;;7394379;19;20158;-81
2022/10/22 08:50:56;;;;;;;4.22;1.20;;;16.80;99.90;;;;;;7392691;19;20146;-78
2022/10/22 08:53:30;;;;;;;18.35;4.63;;;16.80;99.90;;;;;;7393807;19;20147;-76
2022/10/22 08:55:56;;;;;;;6.07;1.80;;;16.70;99.90;;;;;;7391472;19;20149;-77
2022/10/22 08:58:30;;;;;;;3.63;1.13;;;16.60;99.90;;;;;;7389862;19;20161;-76
2022/10/22 09:01:04;;;;;;;2.85;1.00;;;16.70;99.90;;;;;;7392813;19;20140;-77
2022/10/22 09:03:43;;;;;;;5.88;1.80;;;16.70;99.90;;;;;;7390330;19;20242;-76
2022/10/22 09:06:36;;;;;;;3.53;1.30;;;16.90;99.90;;;;;;7392482;19;20162;-78
2022/10/22 09:09:18;;;;;;;6.07;1.50;;;16.80;99.90;;;;;;7390844;19;20542;-77
2022/10/22 09:11:47;;;;;;;2.00;0.90;;;16.80;99.90;;;;;;7393023;19;20130;-77
2022/10/22 09:14:16;;;;;;;1.88;1.00;;;16.90;99.90;;;;;;7394954;19;20130;-77
2022/10/22 09:17:12;;;;;;;1.20;0.60;;;17.10;99.90;;;;;;7392772;19;20168;-78
2022/10/22 09:20:04;;;;;;;1.63;0.70;;;17.00;99.90;;;;;;7393110;19;20131;-77
2022/10/22 09:22:43;;;;;;;1.45;0.60;;;17.10;99.90;;;;;;7394375;19;20135;-78
2022/10/22 09:25:09;;;;;;;1.10;0.55;;;17.10;99.90;;;;;;7392415;19;20406;-77
2022/10/22 09:27:35;;;;;;;0.55;0.47;;;17.20;99.90;;;;;;7390756;19;20150;-77
2022/10/22 09:30:01;;;;;;;0.77;0.65;;;17.20;99.90;;;;;;7391217;19;20464;-78
2022/10/22 09:32:27;;;;;;;0.82;0.43;;;17.40;99.90;;;;;;7391026;19;20242;-78
2022/10/22 09:34:57;;;;;;;1.77;0.60;;;17.50;99.90;;;;;;7392490;19;20142;-78
2022/10/22 09:37:28;;;;;;;1.02;0.65;;;17.70;99.90;;;;;;7388924;19;20157;-78
2022/10/22 09:39:56;;;;;;;1.65;0.40;;;17.80;99.90;;;;;;7391668;19;20198;-75
2022/10/22 09:42:22;;;;;;;0.70;0.60;;;17.90;99.90;;;;;;7390169;19;20131;-73
2022/10/22 09:44:57;;;;;;;0.43;0.43;;;18.20;99.90;;;;;;7390530;19;20155;-76
2022/10/22 09:47:40;;;;;;;0.60;0.50;;;18.30;99.90;;;;;;7391720;19;20136;-74
2022/10/22 09:50:25;;;;;;;0.90;0.60;;;18.50;99.90;;;;;;7386814;19;20146;-75
2022/10/22 09:52:59;;;;;;;1.23;0.40;;;18.60;99.90;;;;;;7386251;19;20150;-74
2022/10/22 09:55:26;;;;;;;0.70;0.65;;;18.70;99.90;;;;;;7387852;19;20130;-73
2022/10/22 09:57:54;;;;;;;1.08;0.65;;;18.80;99.90;;;;;;7389059;19;20115;-74
2022/10/22 10:00:23;;;;;;;0.60;0.60;;;18.90;99.90;;;;;;7389786;19;20148;-73
2022/10/22 10:02:55;;;;;;;0.40;0.40;;;18.90;99.90;;;;;;7391831;19;20158;-75
2022/10/22 10:05:27;;;;;;;1.42;0.55;;;19.00;99.90;;;;;;7386792;19;20166;-74
2022/10/22 10:07:52;;;;;;;2.08;0.68;;;19.10;99.90;;;;;;7388495;19;20141;-74
2022/10/22 10:10:35;;;;;;;1.88;0.57;;;19.20;99.90;;;;;;7386935;19;20134;-76
2022/10/22 10:14:03;;;;;;;1.15;0.60;;;19.30;99.90;;;;;;7387849;19;20202;-75
2022/10/22 10:17:19;;;;;;;1.08;0.55;;;19.40;99.90;;;;;;7392548;19;20135;-72
2022/10/22 10:20:01;;;;;;;1.00;0.52;;;19.50;99.90;;;;;;7381156;19;20696;-74
2022/10/22 10:22:52;;;;;;;1.25;0.50;;;19.50;99.90;;;;;;7390365;19;20175;-74
2022/10/22 10:25:33;;;;;;;5.05;0.77;;;19.60;99.90;;;;;;7390320;19;20482;-74
2022/10/22 10:28:28;;;;;;;1.23;0.52;;;19.70;99.90;;;;;;7387351;19;20131;-73
2022/10/22 10:31:17;;;;;;;0.70;0.32;;;19.70;99.90;;;;;;7388624;19;20169;-75
2022/10/22 10:34:08;;;;;;;12.15;8.18;;;19.90;99.90;;;;;;7391120;19;20139;-73
2022/10/22 10:36:47;;;;;;;3.35;2.30;;;19.80;99.90;;;;;;7391163;19;20499;-74
2022/10/22 10:39:20;;;;;;;1.02;0.50;;;19.60;99.90;;;;;;7387665;19;20522;-74
2022/10/22 10:42:13;;;;;;;1.63;0.63;;;19.60;99.90;;;;;;7387293;19;20158;-73
2022/10/22 10:45:19;;;;;;;3.85;0.80;;;19.50;99.90;;;;;;7394672;19;20143;-73
2022/10/22 10:48:06;;;;;;;0.90;0.60;;;19.50;99.90;;;;;;7393789;19;20626;-75
2022/10/22 10:50:46;;;;;;;0.52;0.40;;;19.50;99.90;;;;;;7387589;19;20602;-74
2022/10/22 10:53:46;;;;;;;1.90;0.70;;;19.50;99.90;;;;;;7393180;19;20234;-75
2022/10/22 10:56:21;;;;;;;0.50;0.50;;;19.60;99.90;;;;;;7390808;19;20485;-76
2022/10/22 10:59:08;;;;;;;1.48;0.70;;;19.80;99.90;;;;;;7386277;19;20578;-74
2022/10/22 11:01:59;;;;;;;0.82;0.50;;;19.90;99.90;;;;;;7390786;19;20138;-75
2022/10/22 11:04:43;;;;;;;10.57;5.82;;;19.90;99.90;;;;;;7387133;19;20181;-75
2022/10/22 11:07:14;;;;;;;2.50;1.23;;;19.80;99.90;;;;;;7382258;19;20245;-74
2022/10/22 11:09:53;;;;;;;1.85;1.17;;;19.60;99.90;;;;;;7388780;19;20146;-75
2022/10/22 11:12:32;;;;;;;6.63;4.30;;;19.60;99.90;;;;;;7389867;19;20151;-74
2022/10/22 11:15:21;;;;;;;2.25;1.48;;;19.70;99.90;;;;;;7390911;19;20226;-74
2022/10/22 11:17:48;;;;;;;1.58;0.95;;;19.80;99.90;;;;;;7391662;19;20146;-74
2022/10/22 11:20:24;;;;;;;4.28;0.70;;;19.90;99.90;;;;;;7391444;19;20202;-73
2022/10/22 11:23:08;;;;;;;0.45;0.40;;;20.00;99.90;;;;;;7390686;19;20130;-74
2022/10/22 11:25:45;;;;;;;1.02;0.55;;;20.00;99.90;;;;;;7384110;19;20138;-73
2022/10/22 11:28:26;;;;;;;2.40;0.57;;;20.10;99.90;;;;;;7386307;19;20146;-75
2022/10/22 11:31:12;;;;;;;2.45;1.45;;;20.10;99.90;;;;;;7390101;19;20154;-74
2022/10/22 11:34:28;;;;;;;2.42;0.80;;;20.10;99.90;;;;;;7386732;19;20639;-74
2022/10/22 11:36:54;;;;;;;2.15;0.52;;;20.30;99.90;;;;;;7389863;19;21687;-74
2022/10/22 11:39:30;;;;;;;0.63;0.40;;;20.50;99.90;;;;;;7379246;19;20133;-74
2022/10/22 11:41:58;;;;;;;1.00;0.50;;;20.20;99.90;;;;;;7379830;19;20122;-74
2022/10/22 11:44:24;;;;;;;1.15;0.52;;;20.10;99.90;;;;;;7384231;19;20237;-73
2022/10/22 11:47:16;;;;;;;0.40;0.40;;;20.10;99.90;;;;;;7385433;19;20600;-74
2022/10/22 11:49:45;;;;;;;2.00;0.90;;;19.80;99.90;;;;;;7385082;19;20127;-74
2022/10/22 11:52:31;;;;;;;1.25;0.80;;;19.90;99.90;;;;;;7387244;19;20126;-75
2022/10/22 11:55:01;;;;;;;2.42;1.30;;;19.80;99.90;;;;;;7386601;19;20122;-73
2022/10/22 11:57:37;;;;;;;1.35;0.68;;;19.60;99.90;;;;;;7388244;19;20194;-75
2022/10/22 12:00:34;;;;;;;1.50;0.40;;;19.60;99.90;;;;;;7387275;19;20167;-75
2022/10/22 12:03:23;;;;;;;1.02;0.90;;;19.60;99.90;;;;;;7386761;19;20188;-74
2022/10/22 12:06:11;;;;;;;0.80;0.70;;;19.80;99.90;;;;;;7387617;19;20165;-73
2022/10/22 12:08:49;;;;;;;2.13;1.20;;;20.00;99.90;;;;;;7387017;19;20168;-73
2022/10/22 12:11:18;;;;;;;1.10;1.00;;;20.20;99.90;;;;;;7390265;19;20138;-73
2022/10/22 12:14:14;;;;;;;1.00;0.90;;;20.20;99.90;;;;;;7390127;19;20661;-74
2022/10/22 12:16:45;;;;;;;0.70;0.70;;;20.00;99.90;;;;;;7381833;19;20458;-74
2022/10/22 12:19:12;;;;;;;0.95;0.90;;;19.90;99.90;;;;;;7388147;19;20254;-74
2022/10/22 12:21:40;;;;;;;4.53;0.98;;;19.80;99.90;;;;;;7389128;19;20205;-75
2022/10/22 12:24:11;;;;;;;1.10;0.65;;;19.70;99.90;;;;;;7388872;19;20131;-75
2022/10/22 12:26:36;;;;;;;1.27;0.90;;;19.90;99.90;;;;;;7390353;19;20604;-75
2022/10/22 12:29:10;;;;;;;1.27;0.70;;;20.10;99.90;;;;;;7389131;19;20149;-75
2022/10/22 12:31:37;;;;;;;2.83;0.80;;;20.00;99.90;;;;;;7391961;19;20155;-75
2022/10/22 12:34:04;;;;;;;1.25;0.63;;;20.10;99.90;;;;;;7390443;19;20139;-74
2022/10/22 12:36:35;;;;;;;1.92;0.88;;;20.10;99.90;;;;;;7388654;19;20142;-75
2022/10/22 12:39:08;;;;;;;1.23;0.60;;;20.30;99.90;;;;;;7382286;19;20151;-74
2022/10/22 12:41:35;;;;;;;2.13;0.75;;;20.50;99.90;;;;;;7379021;19;20161;-76
2022/10/22 12:44:03;;;;;;;2.55;0.85;;;20.40;99.90;;;;;;7381519;19;20158;-76
2022/10/22 12:46:33;;;;;;;1.13;0.70;;;20.40;99.90;;;;;;7370723;19;20142;-76
2022/10/22 12:49:02;;;;;;;1.90;0.57;;;20.50;99.90;;;;;;7371203;19;20138;-78
2022/10/22 12:51:28;;;;;;;1.58;0.70;;;20.50;99.90;;;;;;7375897;19;20138;-76
2022/10/22 12:53:56;;;;;;;1.40;0.88;;;20.60;99.90;;;;;;7374769;19;20146;-78
2022/10/22 12:56:27;;;;;;;0.98;0.80;;;20.60;99.90;;;;;;7375154;19;20656;-76
2022/10/22 12:58:56;;;;;;;2.50;0.70;;;20.50;99.90;;;;;;7377796;19;20203;-76
2022/10/22 13:01:24;;;;;;;1.23;0.70;;;20.60;99.90;;;;;;7389402;19;20142;-76
2022/10/22 13:04:02;;;;;;;3.22;1.13;;;20.80;99.90;;;;;;7386909;19;20178;-76
2022/10/22 13:06:28;;;;;;;0.93;0.60;;;20.70;99.90;;;;;;7388639;19;20510;-77
2022/10/22 13:08:58;;;;;;;2.10;1.08;;;20.70;99.90;;;;;;7391765;19;20135;-75